Terminal Aerodrome Forecast
Issued by NWS

Home | Current Version | Previous Version | Text Only | Print | Product List | Glossary On
Versions: 1 2 3 4 5 6 7 8 9 10 11 12 13 14 15 16 17 18 19 20 21 22 23 24 25 26 27 28
000
FTAK31 PAJK 241723
TAFAGY
TAF
PAGY 241723Z 2418/2518 VRB03KT P6SM VCSH FEW025 BKN060 OVC080
      TEMPO 2418/2422 21015KT 2SM -SHRASN BKN012 OVC020
     FM242200 20015G25KT P6SM BKN060 BKN080
     FM250700 VRB05KT P6SM BKN100
     FM251200 04010KT P6SM SCT100
     AMD LTD TO CLD VIS AND WIND=

USA.gov is the U.S. government's official web portal to all federal, state and local government web resources and services.